createdAt,value
2018-09-06T00:01:50.293Z,23.20
2018-09-06T00:04:18.949Z,24.40
2018-09-06T00:06:47.513Z,22.97
2018-09-06T00:09:16.092Z,22.67
2018-09-06T00:11:44.973Z,22.27
2018-09-06T00:14:13.557Z,23.43
2018-09-06T00:16:42.184Z,23.53
2018-09-06T00:19:10.877Z,23.57
2018-09-06T00:21:39.452Z,23.47
2018-09-06T00:24:08.025Z,23.50
2018-09-06T00:26:36.651Z,22.93
2018-09-06T00:29:05.225Z,27.00
2018-09-06T00:31:33.833Z,24.60
2018-09-06T00:34:02.425Z,26.30
2018-09-06T00:36:30.994Z,25.40
2018-09-06T00:38:59.552Z,25.80
2018-09-06T00:41:28.177Z,25.43
2018-09-06T00:43:56.733Z,26.30
2018-09-06T00:46:25.301Z,25.17
2018-09-06T00:48:53.902Z,26.97
2018-09-06T00:51:22.483Z,25.23
2018-09-06T00:53:59.981Z,25.27
2018-09-06T00:56:28.611Z,28.27
2018-09-06T00:58:57.255Z,27.63
2018-09-06T01:01:27.602Z,25.37
2018-09-06T01:03:56.203Z,26.50
2018-09-06T01:06:24.774Z,27.63
2018-09-06T01:08:53.362Z,26.97
2018-09-06T01:11:21.915Z,27.10
2018-09-06T01:13:50.472Z,26.97
2018-09-06T01:16:19.135Z,27.53
2018-09-06T01:18:47.692Z,26.63
2018-09-06T01:21:16.547Z,25.23
2018-09-06T01:23:45.571Z,25.87
2018-09-06T01:26:14.151Z,27.47
2018-09-06T01:28:42.695Z,27.13
2018-09-06T01:31:12.139Z,25.33
2018-09-06T01:33:40.696Z,24.90
2018-09-06T01:36:14.436Z,27.93
2018-09-06T01:38:42.975Z,26.70
2018-09-06T01:41:11.551Z,26.67
2018-09-06T01:43:40.163Z,27.03
2018-09-06T01:46:08.733Z,24.10
2018-09-06T01:48:37.304Z,23.57
2018-09-06T01:51:06.099Z,26.63
2018-09-06T01:53:34.655Z,24.70
2018-09-06T01:56:03.219Z,24.80
2018-09-06T01:58:31.822Z,24.43
2018-09-06T02:01:00.385Z,25.50
2018-09-06T02:03:28.951Z,23.83
2018-09-06T02:05:57.544Z,24.77
2018-09-06T02:08:26.112Z,25.73
2018-09-06T02:10:54.655Z,24.67
2018-09-06T02:13:23.595Z,27.27
2018-09-06T02:15:52.145Z,25.80
2018-09-06T02:18:20.700Z,25.27
2018-09-06T02:20:49.366Z,27.17
2018-09-06T02:23:17.907Z,27.67
2018-09-06T02:25:46.550Z,27.70
2018-09-06T02:28:15.303Z,26.93
2018-09-06T02:30:43.863Z,28.23
2018-09-06T02:33:12.415Z,26.73
2018-09-06T02:35:41.495Z,26.20
2018-09-06T02:38:10.044Z,27.87
2018-09-06T02:40:39.039Z,26.33
2018-09-06T02:43:10.359Z,29.00
2018-09-06T02:45:38.992Z,28.70
2018-09-06T02:48:07.563Z,26.07
2018-09-06T02:50:41.443Z,28.60
2018-09-06T02:53:10.377Z,28.23
2018-09-06T02:55:39.071Z,27.53
2018-09-06T02:58:07.791Z,27.27
2018-09-06T03:00:37.583Z,27.60
2018-09-06T03:03:06.388Z,26.87
2018-09-06T03:05:35.085Z,27.20
2018-09-06T03:08:03.719Z,27.77
2018-09-06T03:10:37.315Z,28.20
2018-09-06T03:13:05.960Z,27.97
2018-09-06T03:15:34.544Z,26.80
2018-09-06T03:18:03.583Z,26.10
2018-09-06T03:20:32.171Z,27.73
2018-09-06T03:23:01.047Z,27.70
2018-09-06T03:25:30.567Z,25.00
2018-09-06T03:27:59.115Z,27.23
2018-09-06T03:30:27.717Z,27.63
2018-09-06T03:32:56.307Z,26.90
2018-09-06T03:35:24.925Z,26.30
2018-09-06T03:37:53.524Z,26.50
2018-09-06T03:40:22.724Z,25.80
2018-09-06T03:42:51.283Z,26.83
2018-09-06T03:45:19.829Z,23.90
2018-09-06T03:47:48.446Z,26.40
2018-09-06T03:50:17.016Z,28.57
2018-09-06T03:52:45.562Z,26.20
2018-09-06T03:55:14.999Z,28.70
2018-09-06T03:57:44.016Z,25.40
2018-09-06T04:00:12.655Z,26.63
2018-09-06T04:02:41.333Z,25.93
2018-09-06T04:05:09.899Z,26.10
2018-09-06T04:07:38.527Z,26.30
2018-09-06T04:10:07.304Z,25.97
2018-09-06T04:12:35.859Z,26.63
2018-09-06T04:15:04.720Z,27.00
2018-09-06T04:17:33.376Z,28.43
2018-09-06T04:20:01.927Z,26.10
2018-09-06T04:22:30.509Z,25.70
2018-09-06T04:24:59.111Z,25.30
2018-09-06T04:27:27.663Z,26.43
2018-09-06T04:29:56.347Z,26.63
2018-09-06T04:32:25.204Z,25.93
2018-09-06T04:34:53.873Z,27.63
2018-09-06T04:37:22.435Z,26.47
2018-09-06T04:39:51.376Z,27.17
2018-09-06T04:42:19.955Z,28.00
2018-09-06T04:44:48.503Z,29.43
2018-09-06T04:47:17.095Z,30.70
2018-09-06T04:49:45.636Z,28.57
2018-09-06T04:52:14.191Z,29.70
2018-09-06T04:54:42.856Z,28.70
2018-09-06T04:57:11.404Z,29.37
2018-09-06T04:59:39.980Z,27.80
2018-09-06T05:02:08.676Z,29.67
2018-09-06T05:04:37.235Z,27.30
2018-09-06T05:07:05.875Z,29.13
2018-09-06T05:09:34.531Z,32.90
2018-09-06T05:12:03.095Z,30.43
2018-09-06T05:14:31.692Z,29.17
2018-09-06T05:17:00.471Z,28.23
2018-09-06T05:19:29.035Z,31.00
2018-09-06T05:21:57.680Z,28.27
2018-09-06T05:24:26.476Z,29.90
2018-09-06T05:26:55.059Z,30.77
2018-09-06T05:29:24.052Z,29.50
2018-09-06T05:31:52.715Z,30.57
2018-09-06T05:34:21.258Z,29.30
2018-09-06T05:36:49.803Z,28.40
2018-09-06T05:39:18.387Z,28.57
2018-09-06T05:41:46.966Z,28.50
2018-09-06T05:44:15.519Z,27.73
2018-09-06T05:46:44.237Z,29.43
2018-09-06T05:49:12.796Z,27.97
2018-09-06T05:51:41.347Z,29.03
2018-09-06T05:54:10.003Z,27.80
2018-09-06T05:56:38.560Z,28.20
2018-09-06T05:59:07.135Z,30.40
2018-09-06T06:01:36.104Z,28.27
2018-09-06T06:04:04.663Z,28.37
2018-09-06T06:06:33.203Z,27.30
2018-09-06T06:09:01.799Z,28.90
2018-09-06T06:11:30.415Z,28.63
2018-09-06T06:13:58.959Z,28.70
2018-09-06T06:16:27.547Z,28.97
2018-09-06T06:18:56.107Z,28.33
2018-09-06T06:21:24.675Z,28.47
2018-09-06T06:23:53.271Z,29.87
2018-09-06T06:26:21.823Z,26.60
2018-09-06T06:28:50.371Z,27.67
2018-09-06T06:31:18.955Z,28.40
2018-09-06T06:33:47.535Z,26.37
2018-09-06T06:36:16.086Z,26.27
2018-09-06T06:38:44.771Z,26.53
2018-09-06T06:41:13.341Z,26.40
2018-09-06T06:43:41.917Z,25.50
2018-09-06T06:46:10.787Z,26.03
2018-09-06T06:48:39.293Z,24.90
2018-09-06T06:51:07.848Z,25.00
2018-09-06T06:53:36.530Z,25.67
2018-09-06T06:56:05.252Z,23.70
2018-09-06T06:58:33.884Z,23.77
2018-09-06T07:01:02.709Z,23.67
2018-09-06T07:03:31.209Z,22.67
2018-09-06T07:05:59.748Z,23.93
2018-09-06T07:08:28.666Z,23.17
2018-09-06T07:10:57.215Z,22.03
2018-09-06T07:13:25.764Z,22.63
2018-09-06T07:15:54.720Z,22.70
2018-09-06T07:18:23.387Z,21.43
2018-09-06T07:20:51.939Z,24.90
2018-09-06T07:23:20.783Z,22.23
2018-09-06T07:25:49.354Z,22.03
2018-09-06T07:28:17.919Z,22.17
2018-09-06T07:30:46.612Z,23.70
2018-09-06T07:33:15.176Z,23.17
2018-09-06T07:35:43.727Z,21.27
2018-09-06T07:38:12.403Z,20.90
2018-09-06T07:40:40.952Z,21.40
2018-09-06T07:43:09.507Z,22.20
2018-09-06T07:45:38.180Z,19.87
2018-09-06T07:48:06.964Z,22.93
2018-09-06T07:50:35.523Z,21.00
2018-09-06T07:53:04.223Z,17.93
2018-09-06T07:55:32.772Z,18.00
2018-09-06T07:58:01.344Z,18.67
2018-09-06T08:00:29.973Z,15.73
2018-09-06T08:02:58.523Z,16.37
2018-09-06T08:05:27.072Z,16.60
2018-09-06T08:07:55.704Z,16.60
2018-09-06T08:10:24.315Z,15.47
2018-09-06T08:12:52.883Z,17.50
2018-09-06T08:15:21.875Z,15.00
2018-09-06T08:17:50.407Z,15.40
2018-09-06T08:20:19.032Z,14.40
2018-09-06T08:22:47.780Z,16.07
2018-09-06T08:25:16.348Z,13.10
2018-09-06T08:27:44.907Z,13.50
2018-09-06T08:30:13.584Z,14.60
2018-09-06T08:32:42.171Z,14.03
2018-09-06T08:35:10.724Z,13.90
2018-09-06T08:37:39.311Z,14.83
2018-09-06T08:40:07.991Z,14.27
2018-09-06T08:42:36.548Z,13.00
2018-09-06T08:45:05.205Z,12.63
2018-09-06T08:47:33.788Z,14.40
2018-09-06T08:50:02.347Z,12.57
2018-09-06T08:52:31.073Z,12.77
2018-09-06T08:54:59.567Z,12.73
2018-09-06T08:57:28.127Z,12.80
2018-09-06T08:59:56.807Z,12.63
2018-09-06T09:02:25.453Z,11.63
2018-09-06T09:04:53.971Z,14.10
2018-09-06T09:07:23.206Z,11.63
2018-09-06T09:09:51.759Z,12.93
2018-09-06T09:12:20.425Z,12.90
2018-09-06T09:14:49.042Z,12.30
2018-09-06T09:17:17.716Z,11.17
2018-09-06T09:19:46.297Z,12.53
2018-09-06T09:22:15.127Z,13.60
2018-09-06T09:24:43.463Z,11.07
2018-09-06T09:27:12.051Z,10.87
2018-09-06T09:29:41.192Z,10.70
2018-09-06T09:32:09.760Z,11.97
2018-09-06T09:34:38.339Z,11.50
2018-09-06T09:37:07.036Z,10.97
2018-09-06T09:39:35.640Z,11.23
2018-09-06T09:42:04.210Z,10.20
2018-09-06T09:44:32.839Z,9.70
2018-09-06T09:49:29.102Z,11.70
2018-09-06T09:51:57.788Z,11.43
2018-09-06T09:54:26.335Z,10.30
2018-09-06T09:56:54.937Z,11.10
2018-09-06T09:59:23.547Z,10.73
2018-09-06T10:01:57.416Z,11.07
2018-09-06T10:04:31.690Z,12.43
2018-09-06T10:07:05.532Z,12.03
2018-09-06T10:09:34.244Z,11.47
2018-09-06T10:12:02.858Z,12.50
2018-09-06T10:14:31.404Z,11.20
2018-09-06T10:17:00.008Z,12.67
2018-09-06T10:19:28.566Z,11.67
2018-09-06T10:21:57.175Z,11.47
2018-09-06T10:24:25.855Z,10.90
2018-09-06T10:26:54.527Z,14.47
2018-09-06T10:29:23.113Z,15.30
2018-09-06T10:31:51.818Z,16.90
2018-09-06T10:34:20.411Z,18.57
2018-09-06T10:36:48.980Z,25.00
2018-09-06T10:39:17.767Z,24.00
2018-09-06T10:41:46.341Z,26.70
2018-09-06T10:44:14.947Z,16.87
2018-09-06T10:46:43.649Z,12.97
2018-09-06T10:49:12.196Z,12.60
2018-09-06T10:51:40.760Z,12.73
2018-09-06T10:54:09.479Z,12.03
2018-09-06T10:56:38.073Z,11.40
2018-09-06T10:59:06.732Z,10.40
2018-09-06T11:01:35.471Z,9.87
2018-09-06T11:04:04.039Z,6.90
2018-09-06T11:06:32.599Z,7.83
2018-09-06T11:09:01.284Z,7.37
2018-09-06T11:11:29.871Z,10.40
2018-09-06T11:13:58.424Z,12.20
2018-09-06T11:16:27.180Z,12.60
2018-09-06T11:18:55.735Z,7.63
2018-09-06T11:21:24.380Z,9.20
2018-09-06T11:23:52.991Z,11.43
2018-09-06T11:26:21.544Z,12.73
2018-09-06T11:28:50.102Z,16.87
2018-09-06T11:31:18.761Z,19.23
2018-09-06T11:33:47.350Z,19.70
2018-09-06T11:36:15.935Z,16.90
2018-09-06T11:38:44.511Z,8.80
2018-09-06T11:41:13.072Z,9.10
2018-09-06T11:43:41.640Z,8.83
2018-09-06T11:46:10.480Z,9.17
2018-09-06T11:48:39.035Z,9.43
2018-09-06T11:51:08.427Z,8.23
2018-09-06T11:53:37.131Z,9.60
2018-09-06T11:56:06.054Z,11.60
2018-09-06T11:58:34.615Z,12.63
2018-09-06T12:01:03.415Z,13.10
2018-09-06T12:03:32.111Z,14.33
2018-09-06T12:06:00.709Z,15.67
2018-09-06T12:08:29.316Z,13.20
2018-09-06T12:10:57.899Z,11.57
2018-09-06T12:13:26.456Z,12.10
2018-09-06T12:15:55.127Z,12.30
2018-09-06T12:18:23.802Z,12.07
2018-09-06T12:20:52.399Z,11.13
2018-09-06T12:23:21.024Z,10.50
2018-09-06T12:25:49.669Z,9.80
2018-09-06T12:28:18.257Z,9.97
2018-09-06T12:30:46.939Z,9.80
2018-09-06T12:33:15.550Z,10.73
2018-09-06T12:35:44.181Z,9.47
2018-09-06T12:38:13.112Z,10.40
2018-09-06T12:40:41.683Z,11.73
2018-09-06T12:43:10.256Z,12.73
2018-09-06T12:45:38.915Z,13.10
2018-09-06T12:48:07.512Z,15.50
2018-09-06T12:50:36.175Z,13.47
2018-09-06T12:53:04.847Z,15.40
2018-09-06T12:55:33.432Z,14.20
2018-09-06T12:58:02.011Z,12.10
2018-09-06T13:00:30.645Z,13.77
2018-09-06T13:02:59.204Z,12.07
2018-09-06T13:05:27.768Z,12.03
2018-09-06T13:07:56.394Z,14.20
2018-09-06T13:10:24.987Z,13.50
2018-09-06T13:12:53.568Z,15.13
2018-09-06T13:15:22.171Z,14.50
2018-09-06T13:17:50.727Z,14.27
2018-09-06T13:20:20.248Z,15.17
2018-09-06T13:22:48.871Z,14.63
2018-09-06T13:25:17.411Z,14.50
2018-09-06T13:27:45.995Z,14.60
2018-09-06T13:30:15.008Z,15.33
2018-09-06T13:32:43.568Z,14.80
2018-09-06T13:35:12.128Z,15.70
2018-09-06T13:37:40.731Z,12.60
2018-09-06T13:40:09.340Z,9.47
2018-09-06T13:42:37.892Z,9.90
2018-09-06T13:45:06.659Z,9.60
2018-09-06T13:47:35.216Z,9.67
2018-09-06T13:50:03.798Z,9.30
2018-09-06T13:52:32.768Z,8.77
2018-09-06T13:55:01.312Z,9.60
2018-09-06T13:57:29.867Z,9.47
2018-09-06T13:59:58.488Z,8.20
2018-09-06T14:02:27.047Z,7.80
2018-09-06T14:04:55.738Z,8.57
2018-09-06T14:07:24.314Z,7.33
2018-09-06T14:09:52.935Z,8.03
2018-09-06T14:12:21.497Z,8.73
2018-09-06T14:14:50.191Z,7.90
2018-09-06T14:17:18.738Z,9.30
2018-09-06T14:19:47.296Z,8.97
2018-09-06T14:22:15.960Z,8.83
2018-09-06T14:24:44.515Z,7.50
2018-09-06T14:27:13.108Z,7.87
2018-09-06T14:29:42.268Z,8.13
2018-09-06T14:32:10.887Z,7.90
2018-09-06T14:34:39.385Z,7.63
2018-09-06T14:37:08.323Z,9.40
2018-09-06T14:39:36.916Z,8.33
2018-09-06T14:42:05.588Z,8.60
2018-09-06T14:44:34.323Z,8.30
2018-09-06T14:47:02.891Z,8.93
2018-09-06T14:49:31.507Z,8.30
2018-09-06T14:52:00.168Z,9.00
2018-09-06T14:54:28.724Z,8.30
2018-09-06T14:56:57.271Z,9.27
2018-09-06T14:59:26.399Z,9.70
2018-09-06T15:01:55.036Z,8.43
2018-09-06T15:04:23.631Z,7.43
2018-09-06T15:06:52.204Z,7.50
2018-09-06T15:09:20.756Z,8.40
2018-09-06T15:11:49.291Z,8.03
2018-09-06T15:14:18.756Z,9.57
2018-09-06T15:16:47.833Z,7.73
2018-09-06T15:19:16.419Z,8.70
2018-09-06T15:21:45.075Z,9.70
2018-09-06T15:24:13.988Z,7.20
2018-09-06T15:26:42.576Z,7.20
2018-09-06T15:29:11.483Z,7.10
2018-09-06T15:31:40.073Z,9.97
2018-09-06T15:34:08.647Z,9.03
2018-09-06T15:36:37.830Z,8.07
2018-09-06T15:39:08.983Z,10.30
2018-09-06T15:41:37.632Z,13.17
2018-09-06T15:44:06.875Z,16.97
2018-09-06T15:46:35.460Z,13.10
2018-09-06T15:49:04.123Z,13.17
2018-09-06T15:51:32.671Z,12.33
2018-09-06T15:54:01.228Z,13.43
2018-09-06T15:56:29.811Z,13.93
2018-09-06T15:58:58.358Z,16.10
2018-09-06T16:01:26.970Z,26.83
2018-09-06T16:03:55.639Z,20.57
2018-09-06T16:06:24.139Z,20.60
2018-09-06T16:08:52.691Z,19.20
2018-09-06T16:11:21.659Z,20.00
2018-09-06T16:13:50.285Z,22.50
2018-09-06T16:16:18.955Z,21.93
2018-09-06T16:18:47.799Z,20.17
2018-09-06T16:21:16.371Z,18.73
2018-09-06T16:23:44.935Z,21.03
2018-09-06T16:26:13.596Z,20.67
2018-09-06T16:28:42.140Z,20.03
2018-09-06T16:31:10.700Z,19.40
2018-09-06T16:33:39.403Z,16.43
2018-09-06T16:36:07.975Z,15.60
2018-09-06T16:38:36.560Z,15.30
2018-09-06T16:41:05.288Z,16.70
2018-09-06T16:43:33.848Z,16.70
2018-09-06T16:46:02.428Z,18.07
2018-09-06T16:48:31.111Z,17.30
2018-09-06T16:50:59.683Z,16.00
2018-09-06T16:53:28.256Z,17.30
2018-09-06T16:55:57.338Z,17.50
2018-09-06T16:58:25.891Z,15.27
2018-09-06T17:00:54.498Z,15.60
2018-09-06T17:03:23.367Z,11.03
2018-09-06T17:05:51.928Z,9.20
2018-09-06T17:08:20.487Z,8.40
2018-09-06T17:10:49.316Z,6.53
2018-09-06T17:13:17.920Z,4.90
2018-09-06T17:15:52.053Z,7.17
2018-09-06T17:18:20.624Z,11.93
2018-09-06T17:20:49.192Z,11.83
2018-09-06T17:23:17.875Z,13.90
2018-09-06T17:25:46.439Z,15.30
2018-09-06T17:28:15.007Z,16.70
2018-09-06T17:30:43.612Z,14.53
2018-09-06T17:33:12.245Z,12.80
2018-09-06T17:35:40.752Z,16.70
2018-09-06T17:38:09.588Z,15.97
2018-09-06T17:40:38.143Z,16.03
2018-09-06T17:43:06.724Z,15.20
2018-09-06T17:45:35.443Z,15.43
2018-09-06T17:48:04.006Z,16.40
2018-09-06T17:50:32.999Z,17.00
2018-09-06T17:53:01.738Z,20.17
2018-09-06T17:55:30.392Z,21.73
2018-09-06T17:57:58.959Z,19.60
2018-09-06T18:00:27.676Z,22.20
2018-09-06T18:02:56.296Z,21.80
2018-09-06T18:05:24.859Z,20.30
2018-09-06T18:07:53.747Z,22.07
2018-09-06T18:10:22.300Z,20.70
2018-09-06T18:12:50.884Z,20.00
2018-09-06T18:15:19.472Z,21.87
2018-09-06T18:17:48.206Z,20.70
2018-09-06T18:20:16.717Z,20.90
2018-09-06T18:22:45.423Z,20.20
2018-09-06T18:25:14.088Z,19.10
2018-09-06T18:27:42.755Z,20.63
2018-09-06T18:30:11.680Z,22.50
2018-09-06T18:32:40.259Z,23.70
2018-09-06T18:35:08.816Z,22.43
2018-09-06T18:37:37.416Z,23.30
2018-09-06T18:40:05.992Z,22.43
2018-09-06T18:42:34.571Z,27.23
2018-09-06T18:45:03.180Z,27.30
2018-09-06T18:47:31.821Z,26.27
2018-09-06T18:50:00.396Z,28.60
2018-09-06T18:52:29.148Z,29.10
2018-09-06T18:54:57.711Z,29.57
2018-09-06T18:57:26.284Z,27.30
2018-09-06T18:59:55.143Z,26.97
2018-09-06T19:02:23.733Z,27.90
2018-09-06T19:04:52.287Z,29.60
2018-09-06T19:07:20.876Z,28.80
2018-09-06T19:09:49.448Z,26.03
2018-09-06T19:12:18.003Z,27.13
2018-09-06T19:14:46.696Z,25.33
2018-09-06T19:17:15.247Z,25.43
2018-09-06T19:19:43.791Z,25.07
2018-09-06T19:22:12.409Z,23.90
2018-09-06T19:24:41.160Z,25.27
2018-09-06T19:27:09.719Z,24.80
2018-09-06T19:29:38.387Z,27.70
2018-09-06T19:32:07.072Z,26.60
2018-09-06T19:34:35.603Z,26.00
2018-09-06T19:37:04.200Z,26.20
2018-09-06T19:39:32.805Z,29.03
2018-09-06T19:42:01.360Z,24.47
2018-09-06T19:44:30.384Z,24.77
2018-09-06T19:46:58.948Z,27.47
2018-09-06T19:49:27.499Z,26.30
2018-09-06T19:51:56.250Z,24.00
2018-09-06T19:54:24.942Z,27.33
2018-09-06T19:56:54.003Z,22.27
2018-09-06T19:59:22.847Z,26.50
2018-09-06T20:01:51.465Z,25.83
2018-09-06T20:04:20.139Z,27.50
2018-09-06T20:06:48.807Z,21.87
2018-09-06T20:09:17.381Z,24.00
2018-09-06T20:11:46.000Z,23.70
2018-09-06T20:14:15.016Z,24.07
2018-09-06T20:16:43.626Z,24.40
2018-09-06T20:19:12.160Z,23.13
2018-09-06T20:21:40.976Z,23.93
2018-09-06T20:24:09.523Z,21.20
2018-09-06T20:26:38.082Z,23.03
2018-09-06T20:29:06.745Z,20.90
2018-09-06T20:31:35.287Z,21.17
2018-09-06T20:34:03.843Z,20.70
2018-09-06T20:36:32.591Z,20.33
2018-09-06T20:39:01.169Z,22.13
2018-09-06T20:41:29.763Z,21.60
2018-09-06T20:43:58.355Z,19.10
2018-09-06T20:46:26.899Z,19.43
2018-09-06T20:48:55.452Z,18.43
2018-09-06T20:51:24.900Z,18.50
2018-09-06T20:53:54.011Z,17.47
2018-09-06T20:56:22.580Z,19.40
2018-09-06T20:58:51.150Z,17.60
2018-09-06T21:01:19.700Z,18.10
2018-09-06T21:03:48.491Z,19.20
2018-09-06T21:06:17.334Z,20.50
2018-09-06T21:08:45.907Z,23.50
2018-09-06T21:11:14.512Z,19.30
2018-09-06T21:13:43.095Z,17.40
2018-09-06T21:16:11.695Z,17.17
2018-09-06T21:18:40.260Z,16.53
2018-09-06T21:21:08.888Z,15.80
2018-09-06T21:23:37.460Z,17.30
2018-09-06T21:26:06.220Z,17.80
2018-09-06T21:28:34.814Z,16.33
2018-09-06T21:31:03.387Z,19.50
2018-09-06T21:33:32.076Z,17.50
2018-09-06T21:36:00.768Z,17.70
2018-09-06T21:38:29.347Z,18.23
2018-09-06T21:40:57.908Z,18.53
2018-09-06T21:43:26.659Z,17.20
2018-09-06T21:45:55.272Z,17.60
2018-09-06T21:48:23.819Z,16.93
2018-09-06T21:50:52.483Z,15.87
2018-09-06T21:53:21.019Z,17.17
2018-09-06T21:55:49.650Z,17.30
2018-09-06T21:58:18.620Z,17.40
2018-09-06T22:00:47.252Z,17.27
2018-09-06T22:03:21.532Z,17.13
2018-09-06T22:05:50.071Z,14.93
2018-09-06T22:08:18.618Z,14.30
2018-09-06T22:10:47.589Z,14.97
2018-09-06T22:13:16.151Z,15.50
2018-09-06T22:15:44.703Z,15.07
2018-09-06T22:18:13.539Z,16.10
2018-09-06T22:20:42.108Z,18.80
2018-09-06T22:23:10.663Z,15.77
2018-09-06T22:25:39.626Z,16.67
2018-09-06T22:28:08.163Z,14.87
2018-09-06T22:30:36.728Z,15.27
2018-09-06T22:33:05.400Z,16.23
2018-09-06T22:35:33.951Z,17.50
2018-09-06T22:38:02.598Z,16.13
2018-09-06T22:40:31.208Z,15.80
2018-09-06T22:42:59.775Z,14.40
2018-09-06T22:45:28.319Z,15.27
2018-09-06T22:47:57.284Z,14.23
2018-09-06T22:50:25.939Z,15.07
2018-09-06T22:52:54.492Z,16.23
2018-09-06T22:55:23.085Z,15.00
2018-09-06T22:57:51.852Z,14.27
2018-09-06T23:00:21.114Z,14.80
2018-09-06T23:02:55.723Z,15.50
2018-09-06T23:05:24.739Z,15.80
2018-09-06T23:07:53.296Z,14.63
2018-09-06T23:10:21.894Z,14.67
2018-09-06T23:12:51.564Z,17.17
2018-09-06T23:15:20.406Z,15.57
2018-09-06T23:17:49.080Z,15.20
2018-09-06T23:20:17.662Z,15.53
2018-09-06T23:22:46.224Z,16.17
2018-09-06T23:25:14.827Z,14.73
2018-09-06T23:27:43.447Z,15.30
2018-09-06T23:30:12.034Z,14.87
2018-09-06T23:32:40.664Z,15.80
2018-09-06T23:35:09.216Z,14.57
2018-09-06T23:37:37.843Z,15.13
2018-09-06T23:40:06.447Z,15.27
2018-09-06T23:42:34.991Z,16.70
2018-09-06T23:45:03.560Z,15.90
2018-09-06T23:47:32.343Z,16.23
2018-09-06T23:50:00.979Z,17.13
2018-09-06T23:52:30.531Z,17.00
2018-09-06T23:54:59.580Z,16.30
2018-09-06T23:57:28.197Z,16.40
2018-09-06T23:59:56.751Z,18.00
